Peekskill, New York
Current Conditions -  °F | °C
As of 10:45 AM on Thursday 23 Oct 2014 (Local Time) from KSWF Reporting Station
Overcast Overcast  
Wind Chill: 42°   Ceiling: 1500
Heat Index: 48°   Visibility: 6mi
Dew Point: 46°   Wind: 17mph
Humidity: 93%   Direction: 30°NNE
Pressure: 29.76"   Gusts: 29mph
Location:  41.29°N, 73.92°W
Report Text: KSWF 231445Z 03015G25KT 6SM BKN015 OVC030 09/08 A2976
Loading
Personal Weather Stations






























Interactive Weather Map New forecast layout! Learn more

10-Day Weather Forecast

Advertisements
Track Severe Weather on mobile